Time;durP1;ratioP1;P1;durP2;ratioP2;P2;SDS_P1;SDS_P2;PMS_P1;PMS_P2;Temp;Humidity;BMP_temperature;BMP_pressure;BME280_temperature;BME280_humidity;BME280_pressure;Samples;Min_cycle;Max_cycle;Signal;HPM_P1;HPM_P2
2022/08/29 00:01:38;;;;;;;11.68;6.33;;;;;;;19.52;88.74;100558.43;3445614;82;31795;-90
2022/08/29 00:06:39;;;;;;;10.38;5.83;;;;;;;19.52;89.01;100554.23;3490368;82;98940;-88
2022/08/29 00:11:41;;;;;;;11.10;5.80;;;;;;;19.49;89.02;100554.50;3494923;82;31442;-89
2022/08/29 00:16:42;;;;;;;10.67;5.53;;;;;;;19.48;89.21;100552.93;3486647;82;98720;-89
2022/08/29 00:21:43;;;;;;;10.10;5.85;;;;;;;19.46;89.17;100555.34;3495752;82;29426;-89
2022/08/29 00:26:44;;;;;;;12.03;6.33;;;;;;;19.43;89.31;100549.26;3480251;82;98819;-88
2022/08/29 00:31:45;;;;;;;12.60;5.53;;;;;;;19.41;89.31;100556.48;3479646;81;71538;-89
2022/08/29 00:36:47;;;;;;;10.48;5.78;;;;;;;19.16;89.51;100526.91;3496556;82;98891;-86
2022/08/29 00:41:48;;;;;;;10.43;5.58;;;;;;;19.16;89.51;100526.91;3496057;82;30761;-89
2022/08/29 00:46:56;;;;;;;10.35;6.37;;;;;;;19.21;89.30;100549.56;3480665;82;160569;-89
2022/08/29 00:52:03;;;;;;;10.40;5.70;;;;;;;19.15;89.37;100556.05;3492156;82;31611;-90
2022/08/29 00:57:04;;;;;;;10.05;6.35;;;;;;;19.07;89.44;100562.37;3485428;82;99136;-89
2022/08/29 01:02:09;;;;;;;11.95;6.62;;;;;;;19.02;89.68;100559.33;3491573;82;31737;-89
2022/08/29 01:07:11;;;;;;;11.53;7.03;;;;;;;18.98;89.75;100559.41;3493549;82;98809;-89
2022/08/29 01:12:16;;;;;;;12.13;7.22;;;;;;;18.89;89.51;100566.16;3491794;82;41304;-90
2022/08/29 01:17:32;;;;;;;14.20;7.13;;;;;;;18.79;89.48;100567.16;3477595;82;98879;-90
2022/08/29 01:22:48;;;;;;;13.20;7.33;;;;;;;18.68;89.65;100562.99;3493781;82;25875;-90
2022/08/29 01:28:00;;;;;;;13.53;8.75;;;;;;;18.61;89.89;100575.69;3478083;82;98987;-90
2022/08/29 01:33:01;;;;;;;14.13;9.05;;;;;;;18.46;89.95;100570.19;3483950;82;31665;-90
2022/08/29 01:38:03;;;;;;;14.65;7.60;;;;;;;18.22;90.54;100580.56;3488790;82;98969;-89
2022/08/29 01:43:04;;;;;;;13.60;8.73;;;;;;;18.15;91.29;100575.09;3488707;82;39895;-89
2022/08/29 01:48:05;;;;;;;13.00;8.00;;;;;;;18.12;91.73;100572.37;3458275;82;99071;-89
2022/08/29 01:53:06;;;;;;;13.55;8.05;;;;;;;18.02;91.70;100573.34;3488848;82;53511;-90
2022/08/29 01:58:08;;;;;;;15.83;8.63;;;;;;;17.88;92.14;100584.11;3482436;82;99082;-89
2022/08/29 02:03:09;;;;;;;15.63;9.40;;;;;;;17.88;92.45;100583.34;3464871;83;25954;-89
2022/08/29 02:08:10;;;;;;;11.03;7.08;;;;;;;17.82;92.47;100574.66;3474200;83;98819;-88
2022/08/29 02:13:12;;;;;;;12.60;7.17;;;;;;;17.68;92.87;100576.30;3466021;84;26901;-89
2022/08/29 02:18:13;;;;;;;14.90;7.00;;;;;;;17.65;92.78;100579.91;3460577;83;99026;-88
2022/08/29 02:23:14;;;;;;;9.90;5.80;;;;;;;17.67;93.10;100575.31;3468236;83;32275;-90
2022/08/29 02:28:17;;;;;;;12.07;6.27;;;;;;;17.61;93.00;100574.22;3436051;82;98828;-90
2022/08/29 02:33:20;;;;;;;11.85;5.95;;;;;;;17.55;92.84;100573.12;3462536;83;31958;-87
2022/08/29 02:38:21;;;;;;;13.08;6.05;;;;;;;17.46;92.73;100568.67;3465178;82;98935;-89
2022/08/29 02:43:23;;;;;;;13.27;6.07;;;;;;;17.46;93.15;100565.30;3463583;82;43169;-89
2022/08/29 02:48:24;;;;;;;12.37;6.10;;;;;;;17.46;93.20;100573.64;3444393;83;98806;-87
2022/08/29 02:53:29;;;;;;;10.10;5.30;;;;;;;17.45;92.94;100578.23;3462137;83;45700;-89
2022/08/29 02:58:31;;;;;;;12.93;5.45;;;;;;;17.37;92.60;100582.27;3455211;83;98780;-90
2022/08/29 03:03:33;;;;;;;11.90;4.50;;;;;;;17.27;92.55;100588.17;3449639;83;32351;-90
2022/08/29 03:08:34;;;;;;;12.33;5.17;;;;;;;17.24;92.74;100586.84;3464797;83;99199;-90
2022/08/29 03:13:36;;;;;;;13.00;5.20;;;;;;;17.20;92.62;100584.70;3445265;83;29470;-90
2022/08/29 03:18:38;;;;;;;10.75;4.72;;;;;;;17.11;92.62;100592.78;3458625;83;99018;-90
2022/08/29 03:23:39;;;;;;;13.95;5.70;;;;;;;17.12;92.64;100594.35;3468665;83;31971;-90
2022/08/29 03:28:41;;;;;;;12.20;5.70;;;;;;;17.04;92.54;100595.63;3455686;82;98715;-90
2022/08/29 03:33:42;;;;;;;13.75;6.12;;;;;;;16.99;92.27;100595.50;3464986;83;32541;-90
2022/08/29 03:38:46;;;;;;;12.30;5.77;;;;;;;16.87;92.34;100598.83;3465824;81;98936;-90
2022/08/29 03:43:47;;;;;;;10.90;5.50;;;;;;;16.82;92.29;100597.89;3462294;82;54921;-90
2022/08/29 03:48:48;;;;;;;14.73;5.87;;;;;;;16.67;91.52;100599.25;3460738;83;103070;-90
2022/08/29 03:53:49;;;;;;;11.93;5.43;;;;;;;16.50;91.82;100607.17;3445844;82;31306;-90
2022/08/29 03:58:51;;;;;;;14.93;5.83;;;;;;;16.49;92.57;100604.21;3456396;82;98725;-90
2022/08/29 04:03:53;;;;;;;10.10;5.07;;;;;;;16.45;92.80;100614.56;3476265;83;26889;-90
2022/08/29 04:08:55;;;;;;;12.88;4.78;;;;;;;16.41;92.71;100614.42;3476433;82;98992;-90
2022/08/29 04:13:56;;;;;;;12.53;5.37;;;;;;;16.34;92.74;100624.16;3469409;82;31628;-90
2022/08/29 04:18:58;;;;;;;14.17;6.10;;;;;;;16.33;92.43;100625.36;3484620;83;98713;-90
2022/08/29 04:23:59;;;;;;;11.63;5.62;;;;;;;16.33;92.81;100623.97;3490776;82;66977;-90
2022/08/29 04:29:00;;;;;;;13.47;5.57;;;;;;;16.35;92.81;100625.76;3486030;82;98714;-87
2022/08/29 04:34:04;;;;;;;10.10;5.30;;;;;;;16.34;92.63;100638.84;3473047;82;26476;-90
2022/08/29 04:39:05;;;;;;;7.87;4.37;;;;;;;16.30;92.20;100637.31;3496432;81;99016;-90
2022/08/29 04:44:07;;;;;;;12.98;5.25;;;;;;;16.16;92.17;100640.19;3491581;82;73242;-89
2022/08/29 04:49:08;;;;;;;12.15;5.42;;;;;;;16.00;91.33;100637.95;3470922;82;99051;-90
2022/08/29 04:54:09;;;;;;;10.90;4.47;;;;;;;15.73;91.58;100631.98;3496841;82;28860;-90
2022/08/29 04:59:11;;;;;;;12.10;5.93;;;;;;;15.62;92.08;100636.81;3483391;82;98661;-90
2022/08/29 05:04:12;;;;;;;10.77;4.70;;;;;;;15.62;93.15;100636.23;3493891;82;96681;-90
2022/08/29 05:09:13;;;;;;;15.20;5.43;;;;;;;15.58;92.71;100633.29;3504276;82;99228;-90
2022/08/29 05:14:14;;;;;;;15.20;6.07;;;;;;;15.37;92.50;100634.17;3507237;83;27437;-89
2022/08/29 05:19:16;;;;;;;13.23;6.40;;;;;;;15.26;92.79;100638.95;3494206;82;99065;-90
2022/08/29 05:24:17;;;;;;;13.83;5.40;;;;;;;15.18;93.58;100637.42;3499697;83;25947;-90
2022/08/29 05:29:19;;;;;;;10.80;5.47;;;;;;;15.09;93.55;100641.20;3500196;82;98850;-90
2022/08/29 05:34:20;;;;;;;16.47;5.63;;;;;;;15.13;94.04;100648.92;3493734;82;37282;-90
2022/08/29 05:39:21;;;;;;;12.30;5.77;;;;;;;15.10;94.33;100655.25;3496230;83;98525;-89
2022/08/29 05:44:22;;;;;;;10.83;5.07;;;;;;;15.21;94.81;100662.16;3498888;82;25936;-90
2022/08/29 05:49:24;;;;;;;14.70;5.73;;;;;;;15.38;95.21;100664.09;3494083;83;98818;-89
2022/08/29 05:54:25;;;;;;;12.77;5.13;;;;;;;15.51;94.77;100661.85;3504680;83;74995;-88
2022/08/29 05:59:26;;;;;;;15.33;5.37;;;;;;;15.61;94.67;100666.56;3491334;82;99132;-90
2022/08/29 06:04:27;;;;;;;12.53;4.90;;;;;;;15.68;93.97;100664.31;3498269;82;116807;-90
2022/08/29 06:09:28;;;;;;;13.73;4.80;;;;;;;15.81;94.15;100665.45;3463864;83;99138;-89
2022/08/29 06:14:30;;;;;;;14.53;5.53;;;;;;;16.05;94.70;100673.61;3492037;82;26232;-89
2022/08/29 06:19:33;;;;;;;14.53;5.10;;;;;;;16.06;93.53;100675.77;3493970;82;98655;-88
2022/08/29 06:24:34;;;;;;;11.85;5.12;;;;;;;16.16;94.21;100682.65;3491046;82;32549;-88
2022/08/29 06:29:35;;;;;;;14.27;5.47;;;;;;;16.23;93.45;100685.95;3496993;82;98803;-87
2022/08/29 06:34:36;;;;;;;23.10;6.50;;;;;;;16.22;93.31;100676.05;3495099;82;26614;-86
2022/08/29 06:39:38;;;;;;;14.13;4.60;;;;;;;16.26;93.47;100684.55;3491241;82;98456;-88
2022/08/29 06:44:39;;;;;;;11.37;4.53;;;;;;;16.27;93.13;100682.55;3490678;82;52497;-88
2022/08/29 06:49:40;;;;;;;15.50;5.08;;;;;;;16.37;93.69;100697.76;3481044;82;99114;-90
2022/08/29 06:54:41;;;;;;;8.80;4.00;;;;;;;16.49;93.28;100711.77;3498589;82;26466;-87
2022/08/29 06:59:42;;;;;;;12.87;4.90;;;;;;;16.64;93.44;100707.67;3491957;82;98384;-87
2022/08/29 07:04:43;;;;;;;17.43;5.70;;;;;;;17.09;93.68;100723.91;3475133;84;26136;-86
2022/08/29 07:09:44;;;;;;;12.33;5.77;;;;;;;17.09;93.68;100723.91;3492970;84;98503;-90
2022/08/29 07:14:46;;;;;;;14.87;5.53;;;;;;;17.33;93.13;100729.78;3496711;82;25869;-87
2022/08/29 07:19:47;;;;;;;13.90;5.10;;;;;;;17.59;92.13;100722.14;3493800;83;98667;-86
2022/08/29 07:24:48;;;;;;;12.47;5.43;;;;;;;17.90;92.22;100720.94;3501444;82;26166;-87
2022/08/29 07:29:49;;;;;;;14.40;5.62;;;;;;;18.19;91.60;100732.44;3495190;82;98655;-86
2022/08/29 07:34:50;;;;;;;12.67;5.70;;;;;;;18.52;90.57;100734.36;3494291;82;45831;-87
2022/08/29 07:39:51;;;;;;;14.67;6.07;;;;;;;18.65;89.46;100729.13;3492150;83;98705;-86
2022/08/29 07:44:53;;;;;;;23.73;6.67;;;;;;;18.87;89.16;100730.95;3493697;83;32645;-87
2022/08/29 07:49:54;;;;;;;17.17;5.05;;;;;;;19.06;88.22;100724.61;3487691;83;98553;-86
2022/08/29 07:54:57;;;;;;;22.22;6.03;;;;;;;19.21;87.42;100726.75;3496191;83;35089;-85
2022/08/29 08:00:01;;;;;;;11.22;4.58;;;;;;;19.38;86.81;100726.21;3486373;82;99152;-87
2022/08/29 08:05:02;;;;;;;16.48;5.50;;;;;;;19.49;86.35;100728.18;3495483;83;36611;-86
2022/08/29 08:10:04;;;;;;;14.47;4.53;;;;;;;19.66;86.23;100735.39;3514535;82;99463;-88
2022/08/29 08:15:06;;;;;;;12.45;4.47;;;;;;;19.79;85.51;100727.95;3502723;82;34957;-85
2022/08/29 08:20:08;;;;;;;15.03;4.60;;;;;;;19.97;84.56;100728.34;3493444;84;98708;-85
2022/08/29 08:25:09;;;;;;;14.13;3.85;;;;;;;20.12;83.71;100722.02;3496524;83;34777;-87
2022/08/29 08:30:12;;;;;;;14.30;4.53;;;;;;;20.36;83.45;100729.66;3494335;82;128505;-86
2022/08/29 08:35:15;;;;;;;11.85;3.80;;;;;;;20.69;81.80;100730.62;3503761;82;34889;-87
2022/08/29 08:40:26;;;;;;;13.03;4.12;;;;;;;21.06;82.99;100723.69;3468880;82;2135335;-86
2022/08/29 08:45:40;;;;;;;9.38;3.37;;;;;;;21.66;81.69;100735.37;3500437;82;35414;-89
2022/08/29 08:50:50;;;;;;;12.35;3.25;;;;;;;22.16;80.32;100732.07;3479474;83;98660;-87
2022/08/29 08:55:54;;;;;;;13.30;3.77;;;;;;;22.83;77.80;100733.48;3497149;82;34893;-86
2022/08/29 09:01:15;;;;;;;11.87;3.90;;;;;;;23.09;73.93;100728.56;3491698;82;99383;-88
2022/08/29 09:06:52;;;;;;;13.15;3.47;;;;;;;23.65;72.70;100732.17;3442324;83;123509;-86
2022/08/29 09:12:19;;;;;;;10.88;3.77;;;;;;;24.25;70.95;100735.63;3436124;83;34944;-86
2022/08/29 09:17:47;;;;;;;12.73;3.10;;;;;;;25.08;68.50;100734.00;3435857;82;98995;-84
2022/08/29 09:23:11;;;;;;;10.32;3.72;;;;;;;25.98;69.58;100740.38;3450404;83;35165;-87
2022/08/29 09:28:13;;;;;;;10.27;2.93;;;;;;;26.66;67.07;100727.41;3444695;83;99037;-84
2022/08/29 09:33:15;;;;;;;9.80;3.27;;;;;;;27.10;63.43;100733.39;3455055;82;58311;-85
2022/08/29 09:38:24;;;;;;;9.60;3.10;;;;;;;27.30;58.94;100740.62;3458285;82;98721;-84
2022/08/29 09:43:43;;;;;;;11.10;3.20;;;;;;;27.49;59.15;100731.34;3441425;82;36214;-83
2022/08/29 09:48:55;;;;;;;11.63;2.95;;;;;;;27.71;56.90;100741.66;3459734;82;98999;-83
2022/08/29 09:54:18;;;;;;;11.63;3.47;;;;;;;27.98;56.58;100739.98;3450971;83;26101;-84
2022/08/29 09:59:31;;;;;;;10.30;3.72;;;;;;;28.45;56.00;100735.52;3435561;82;99149;-85
2022/08/29 10:04:38;;;;;;;12.98;2.80;;;;;;;28.72;53.17;100734.48;3453890;83;32070;-84
2022/08/29 10:09:40;;;;;;;10.20;3.27;;;;;;;28.84;52.64;100726.92;3462292;82;98825;-85
2022/08/29 10:14:53;;;;;;;7.55;2.52;;;;;;;28.91;51.37;100729.33;3473489;82;107343;-84
2022/08/29 10:19:55;;;;;;;9.48;2.55;;;;;;;28.86;49.76;100725.16;3451539;83;98956;-86
2022/08/29 10:25:07;;;;;;;10.60;2.67;;;;;;;28.94;50.03;100731.95;3471458;82;34841;-84
2022/08/29 10:30:13;;;;;;;8.45;2.47;;;;;;;29.19;47.88;100729.06;3448617;83;98986;-84
2022/08/29 10:35:35;;;;;;;12.07;3.10;;;;;;;29.41;47.67;100726.48;3471831;83;26457;-84
2022/08/29 10:40:53;;;;;;;7.85;2.50;;;;;;;29.66;47.03;100724.34;3455107;82;251077;-83
2022/08/29 10:46:14;;;;;;;7.17;2.80;;;;;;;29.83;46.20;100728.11;3448415;83;26355;-83
2022/08/29 10:51:33;;;;;;;10.55;2.70;;;;;;;30.25;44.68;100728.25;3460815;83;84917;-84
2022/08/29 10:56:39;;;;;;;9.40;2.35;;;;;;;30.31;45.69;100731.91;3460578;82;98968;-83
2022/08/29 11:01:51;;;;;;;6.58;2.20;;;;;;;30.23;44.18;100729.41;3467837;82;65458;-83
2022/08/29 11:07:03;;;;;;;7.87;2.15;;;;;;;29.82;44.58;100726.56;3492863;82;98525;-84
2022/08/29 11:12:24;;;;;;;8.30;2.40;;;;;;;30.10;44.64;100725.56;3495480;82;26346;-84
2022/08/29 11:17:30;;;;;;;12.40;2.62;;;;;;;30.02;44.36;100735.01;3492068;82;98845;-84
2022/08/29 11:22:36;;;;;;;10.00;3.25;;;;;;;29.53;44.32;100724.69;3492854;83;37140;-82
2022/08/29 11:28:09;;;;;;;7.70;2.37;;;;;;;29.21;42.92;100732.96;3481440;82;98757;-84
2022/08/29 11:33:39;;;;;;;8.08;2.98;;;;;;;29.28;44.00;100733.18;3488344;82;26543;-81
2022/08/29 11:39:04;;;;;;;9.10;2.90;;;;;;;29.06;42.99;100737.95;3493010;82;98711;-86
2022/08/29 11:44:34;;;;;;;8.10;2.05;;;;;;;29.13;44.07;100725.39;3490514;82;26358;-84
2022/08/29 11:49:40;;;;;;;11.28;2.17;;;;;;;29.02;43.24;100730.92;3491617;82;98440;-83
2022/08/29 11:55:14;;;;;;;6.62;2.58;;;;;;;28.91;43.21;100730.75;3497879;82;47391;-83
2022/08/29 12:00:44;;;;;;;6.25;2.20;;;;;;;28.72;43.94;100722.39;3335436;84;98494;-85
2022/08/29 12:05:56;;;;;;;9.35;2.52;;;;;;;28.27;44.67;100737.14;3475191;82;28457;-84
2022/08/29 12:10:59;;;;;;;5.85;2.15;;;;;;;27.97;45.37;100742.67;3505282;82;26436;-83
2022/08/29 12:16:08;;;;;;;7.42;2.10;;;;;;;27.99;45.57;100738.70;3503733;82;98744;-83
2022/08/29 12:21:38;;;;;;;13.15;2.67;;;;;;;27.78;45.74;100739.88;3511044;82;25790;-85
2022/08/29 12:26:45;;;;;;;21.12;3.75;;;;;;;27.57;46.53;100741.78;3418252;84;125461;-84
2022/08/29 12:32:26;;;;;;;11.25;2.60;;;;;;;27.20;46.38;100737.71;3503609;81;26368;-83
2022/08/29 12:37:59;;;;;;;6.87;2.50;;;;;;;26.93;47.71;100740.73;3517192;82;99059;-82
2022/08/29 12:43:23;;;;;;;9.33;2.67;;;;;;;26.75;46.86;100731.59;3505143;82;35668;-83
2022/08/29 12:48:38;;;;;;;9.53;2.90;;;;;;;26.40;47.72;100748.22;3507996;82;98517;-83
2022/08/29 12:53:40;;;;;;;9.18;3.08;;;;;;;26.35;48.83;100744.64;3496841;83;45241;-83
2022/08/29 12:58:46;;;;;;;7.83;2.42;;;;;;;26.37;50.09;100739.93;3478372;82;98822;-83
2022/08/29 13:04:12;;;;;;;7.90;3.30;;;;;;;26.41;49.59;100745.55;3495487;82;37490;-84
2022/08/29 13:09:30;;;;;;;4.50;1.92;;;;;;;26.40;49.82;100747.42;3483192;82;98546;-82
2022/08/29 13:14:33;;;;;;;6.72;2.58;;;;;;;26.29;50.31;100739.48;3503854;82;26536;-83
2022/08/29 13:19:34;;;;;;;8.13;2.58;;;;;;;26.04;50.14;100735.66;3500746;82;98384;-83
2022/08/29 13:24:35;;;;;;;6.95;2.85;;;;;;;25.81;51.54;100742.58;3510144;82;34845;-83
2022/08/29 13:29:40;;;;;;;8.45;3.40;;;;;;;25.78;52.64;100747.77;3489034;82;137968;-82
2022/08/29 13:35:07;;;;;;;7.80;3.02;;;;;;;25.78;53.54;100747.12;3485941;82;26247;-83
2022/08/29 13:40:37;;;;;;;13.88;3.02;;;;;;;25.71;53.66;100754.50;3495396;82;98751;-84
2022/08/29 13:45:38;;;;;;;8.05;2.65;;;;;;;25.62;54.37;100751.69;3493363;83;34855;-84
2022/08/29 13:50:40;;;;;;;8.75;3.00;;;;;;;25.63;54.32;100749.05;3492093;82;98628;-85
2022/08/29 13:55:42;;;;;;;6.92;2.60;;;;;;;25.59;54.66;100748.42;3495113;83;26428;-83
2022/08/29 14:00:43;;;;;;;4.15;2.27;;;;;;;25.44;54.97;100751.72;3492037;82;98612;-85
2022/08/29 14:05:44;;;;;;;8.35;3.52;;;;;;;25.44;55.57;100736.86;3503129;82;34773;-84
2022/08/29 14:10:46;;;;;;;4.50;2.08;;;;;;;25.52;55.57;100743.11;3500209;82;98760;-85
2022/08/29 14:15:47;;;;;;;5.22;2.95;;;;;;;25.31;55.09;100741.24;3512108;83;34962;-84
2022/08/29 14:20:48;;;;;;;4.55;2.17;;;;;;;25.23;55.92;100742.77;3500287;82;98637;-84
2022/08/29 14:25:49;;;;;;;4.83;2.27;;;;;;;25.28;56.84;100752.03;3507437;82;35005;-83
2022/08/29 14:30:50;;;;;;;8.20;2.75;;;;;;;25.25;56.73;100757.21;3503257;82;98419;-84
2022/08/29 14:35:52;;;;;;;6.50;3.17;;;;;;;25.31;56.91;100748.91;3506213;82;35464;-84
2022/08/29 14:40:53;;;;;;;4.72;2.90;;;;;;;25.34;57.20;100750.15;3499843;82;98418;-84
2022/08/29 14:45:54;;;;;;;7.42;3.33;;;;;;;25.36;57.01;100742.64;3515390;82;35383;-84
2022/08/29 14:50:55;;;;;;;6.10;3.20;;;;;;;25.27;56.86;100732.16;3500334;82;98507;-86
2022/08/29 14:55:57;;;;;;;5.62;2.90;;;;;;;25.26;57.39;100735.44;3507812;83;35442;-85
2022/08/29 15:00:58;;;;;;;6.75;3.33;;;;;;;25.13;57.55;100731.33;3504990;82;35424;-84
2022/08/29 15:06:00;;;;;;;6.55;3.75;;;;;;;24.83;58.04;100719.58;3499453;82;98926;-86
2022/08/29 15:11:01;;;;;;;7.37;3.25;;;;;;;24.61;57.58;100725.16;3505048;83;35004;-86
2022/08/29 15:16:03;;;;;;;9.33;3.37;;;;;;;24.50;58.61;100729.00;3499708;82;99472;-84
2022/08/29 15:21:04;;;;;;;6.87;3.35;;;;;;;24.39;58.69;100733.67;3513117;81;34917;-85
2022/08/29 15:26:05;;;;;;;6.10;3.05;;;;;;;24.14;59.06;100728.89;3512240;82;98830;-85
2022/08/29 15:31:07;;;;;;;6.58;2.87;;;;;;;24.05;59.77;100729.63;3502220;83;41197;-86
2022/08/29 15:36:08;;;;;;;6.97;3.30;;;;;;;24.03;59.74;100724.30;3504414;82;98876;-85
2022/08/29 15:41:09;;;;;;;6.37;2.90;;;;;;;23.81;59.50;100727.11;3502756;82;35724;-85
2022/08/29 15:46:10;;;;;;;8.75;2.98;;;;;;;23.72;60.25;100721.45;3497920;82;98846;-85
2022/08/29 15:51:11;;;;;;;5.90;2.70;;;;;;;23.71;60.42;100719.86;3505439;83;35540;-86
2022/08/29 15:56:12;;;;;;;7.70;3.37;;;;;;;23.45;60.86;100719.07;3499328;82;99032;-85
2022/08/29 16:01:14;;;;;;;9.35;2.98;;;;;;;23.35;61.42;100715.42;3492214;82;35356;-85
2022/08/29 16:06:15;;;;;;;9.00;3.50;;;;;;;23.30;61.80;100710.98;3501015;83;98491;-85
2022/08/29 16:11:17;;;;;;;8.38;3.50;;;;;;;23.20;61.90;100708.73;3504368;82;35975;-84
2022/08/29 16:16:18;;;;;;;8.10;3.45;;;;;;;23.10;62.54;100708.46;3501736;81;98986;-85
2022/08/29 16:21:22;;;;;;;7.12;3.55;;;;;;;23.10;62.71;100711.91;3501519;82;35374;-84
2022/08/29 16:26:23;;;;;;;7.83;3.40;;;;;;;22.97;63.09;100713.35;3496705;82;98929;-84
2022/08/29 16:31:25;;;;;;;9.58;3.30;;;;;;;22.83;63.42;100716.64;3504195;82;34846;-85
2022/08/29 16:36:26;;;;;;;8.30;3.70;;;;;;;22.80;63.68;100714.75;3495888;82;99003;-84
2022/08/29 16:41:27;;;;;;;8.63;3.60;;;;;;;22.77;63.89;100719.09;3499401;82;35150;-85
2022/08/29 16:46:29;;;;;;;7.92;3.67;;;;;;;22.64;64.38;100712.70;3478922;82;98866;-85
2022/08/29 16:51:30;;;;;;;8.20;4.20;;;;;;;22.59;64.79;100717.48;3500080;83;46182;-86
2022/08/29 16:56:31;;;;;;;10.95;3.80;;;;;;;22.44;65.16;100719.97;3495647;82;99449;-84
2022/08/29 17:01:41;;;;;;;9.53;4.53;;;;;;;22.27;65.63;100726.11;3500128;83;42339;-85
2022/08/29 17:06:45;;;;;;;8.43;3.65;;;;;;;22.24;66.00;100730.59;3466204;82;98771;-85
2022/08/29 17:16:51;;;;;;;6.75;3.08;;;;;;;22.03;66.36;100741.10;3422540;83;98598;-84
2022/08/29 17:21:52;;;;;;;8.15;4.05;;;;;;;21.88;66.66;100740.55;3432336;82;35508;-83
2022/08/29 17:26:54;;;;;;;7.67;3.75;;;;;;;21.80;67.06;100743.41;3414813;83;98565;-85
2022/08/29 17:31:55;;;;;;;5.90;3.00;;;;;;;21.61;67.64;100742.33;3433400;83;34328;-85
2022/08/29 17:36:57;;;;;;;9.03;3.80;;;;;;;21.43;68.10;100744.86;3425193;83;98835;-85
2022/08/29 17:41:58;;;;;;;7.70;3.30;;;;;;;21.31;68.54;100744.80;3427419;83;36205;-85
2022/08/29 17:47:00;;;;;;;6.75;3.42;;;;;;;21.23;68.79;100751.20;3411357;83;98788;-85
2022/08/29 17:52:01;;;;;;;8.75;3.47;;;;;;;21.15;69.23;100749.81;3438469;83;25824;-84
2022/08/29 17:57:03;;;;;;;8.08;4.45;;;;;;;21.06;69.90;100748.87;3423766;82;98656;-85
2022/08/29 18:02:05;;;;;;;6.42;3.65;;;;;;;20.87;70.53;100744.94;3417755;82;34831;-85
2022/08/29 18:07:06;;;;;;;7.67;3.87;;;;;;;20.72;71.22;100742.31;3459426;80;98671;-86
2022/08/29 18:12:08;;;;;;;8.90;4.75;;;;;;;20.50;72.07;100742.67;3491183;82;34848;-85
2022/08/29 18:17:09;;;;;;;8.55;4.45;;;;;;;20.34;73.07;100753.08;3459939;82;98778;-84
2022/08/29 18:22:10;;;;;;;12.00;4.85;;;;;;;20.19;73.71;100762.41;3495765;82;35420;-87
2022/08/29 18:27:11;;;;;;;10.48;5.78;;;;;;;20.07;74.58;100765.08;3487750;82;99007;-87
2022/08/29 18:32:12;;;;;;;13.43;5.55;;;;;;;19.95;75.34;100772.70;3491798;82;35562;-86
2022/08/29 18:37:14;;;;;;;11.25;5.70;;;;;;;19.86;76.16;100772.48;3498078;81;99232;-87
2022/08/29 18:42:15;;;;;;;11.15;5.90;;;;;;;19.83;76.69;100776.93;3490368;83;33707;-87
2022/08/29 18:47:17;;;;;;;12.95;5.95;;;;;;;19.80;77.15;100782.59;3489653;82;99925;-87
2022/08/29 18:52:18;;;;;;;12.37;6.12;;;;;;;19.79;77.50;100784.59;3495729;82;35390;-87
2022/08/29 18:57:19;;;;;;;10.75;5.15;;;;;;;19.73;78.09;100787.70;3497026;82;99334;-87
2022/08/29 19:02:21;;;;;;;18.82;7.53;;;;;;;19.70;78.31;100785.80;3491216;83;46298;-85
2022/08/29 19:07:22;;;;;;;22.40;10.13;;;;;;;19.68;78.87;100791.00;3470579;83;98949;-87
2022/08/29 19:12:23;;;;;;;21.57;8.13;;;;;;;19.70;78.83;100797.56;3383131;84;32960;-87
2022/08/29 19:17:24;;;;;;;18.85;9.03;;;;;;;19.72;78.57;100794.52;3429659;84;98991;-87
2022/08/29 19:22:25;;;;;;;11.43;5.80;;;;;;;19.73;78.88;100798.88;3424526;84;33981;-87
2022/08/29 19:27:28;;;;;;;8.73;4.28;;;;;;;19.72;79.11;100804.29;3420915;84;98955;-87
2022/08/29 19:32:29;;;;;;;9.23;5.12;;;;;;;19.74;79.00;100801.88;3432518;84;34836;-87
2022/08/29 19:37:31;;;;;;;8.08;4.30;;;;;;;19.74;79.45;100803.27;3417790;84;98770;-87
2022/08/29 19:42:32;;;;;;;9.48;4.58;;;;;;;19.75;79.29;100804.05;3430320;84;34944;-87
2022/08/29 19:47:33;;;;;;;12.75;6.28;;;;;;;19.73;79.46;100802.30;3419182;84;99212;-87
2022/08/29 19:52:35;;;;;;;10.65;4.55;;;;;;;19.73;79.71;100806.48;3428070;84;34970;-87
2022/08/29 19:57:37;;;;;;;9.83;5.00;;;;;;;19.75;79.70;100812.42;3413882;84;99232;-86
2022/08/29 20:02:40;;;;;;;9.48;4.97;;;;;;;19.80;79.66;100811.33;3424225;84;36475;-87
2022/08/29 20:07:43;;;;;;;9.23;4.87;;;;;;;19.85;79.56;100818.41;3425613;82;98556;-86
2022/08/29 20:12:45;;;;;;;7.50;4.12;;;;;;;19.85;79.72;100812.22;3498606;82;35667;-86
2022/08/29 20:17:46;;;;;;;8.83;4.55;;;;;;;19.87;80.00;100816.76;3499045;82;98527;-85
2022/08/29 20:22:48;;;;;;;8.00;4.03;;;;;;;19.90;79.97;100813.72;3507236;82;33978;-86
2022/08/29 20:27:50;;;;;;;8.60;3.90;;;;;;;19.91;79.82;100814.69;3500117;82;98920;-87
2022/08/29 20:32:52;;;;;;;8.00;4.00;;;;;;;19.95;79.64;100815.38;3503680;82;34922;-86
2022/08/29 20:37:53;;;;;;;8.03;3.65;;;;;;;20.00;79.75;100827.45;3482644;82;98424;-87
2022/08/29 20:42:54;;;;;;;7.33;4.12;;;;;;;20.01;79.71;100827.63;3508784;82;34856;-87
2022/08/29 20:47:56;;;;;;;7.93;3.80;;;;;;;20.03;80.01;100823.01;3499574;82;98554;-86
2022/08/29 20:52:58;;;;;;;9.58;4.40;;;;;;;19.99;80.12;100814.70;3507159;81;34811;-86
2022/08/29 20:57:59;;;;;;;7.70;4.37;;;;;;;20.00;80.06;100822.48;3494435;82;98813;-86
2022/08/29 21:08:22;;;;;;;7.30;4.15;;;;;;;19.98;80.12;100823.52;3465131;83;98903;-87
2022/08/29 21:13:24;;;;;;;10.18;3.87;;;;;;;19.94;80.24;100820.02;3425010;84;35129;-87
2022/08/29 21:18:25;;;;;;;7.50;4.20;;;;;;;19.91;80.52;100825.86;3413582;84;99024;-86
2022/08/29 21:23:26;;;;;;;9.25;4.20;;;;;;;19.87;80.72;100834.91;3433720;84;34843;-86
2022/08/29 21:28:31;;;;;;;7.87;4.25;;;;;;;19.82;80.80;100833.22;3420425;84;98375;-87
2022/08/29 21:33:39;;;;;;;8.33;4.33;;;;;;;19.79;81.00;100841.08;3424098;84;35584;-87
2022/08/29 21:38:40;;;;;;;8.53;4.17;;;;;;;19.74;81.29;100838.19;3421759;84;98861;-87
2022/08/29 21:43:41;;;;;;;8.45;4.03;;;;;;;19.73;81.57;100841.40;3426835;84;34871;-87
2022/08/29 21:48:43;;;;;;;8.10;3.90;;;;;;;19.72;81.70;100843.39;3419741;84;98739;-87
2022/08/29 21:53:47;;;;;;;5.78;3.45;;;;;;;19.71;81.84;100848.00;3422656;84;34839;-87
2022/08/29 21:58:52;;;;;;;7.87;3.60;;;;;;;19.71;82.11;100852.19;3419259;83;98560;-87
2022/08/29 22:03:53;;;;;;;7.75;3.20;;;;;;;19.67;82.41;100862.04;3416654;84;34937;-87
2022/08/29 22:08:56;;;;;;;9.38;3.47;;;;;;;19.66;82.60;100864.66;3461412;82;98976;-87
2022/08/29 22:13:57;;;;;;;6.60;3.65;;;;;;;19.66;82.64;100876.42;3496482;83;34833;-87
2022/08/29 22:19:09;;;;;;;6.92;3.42;;;;;;;19.64;82.86;100881.06;3486758;82;98970;-86
2022/08/29 22:24:12;;;;;;;6.42;3.47;;;;;;;19.62;82.93;100880.68;3488609;82;35495;-87
2022/08/29 22:29:14;;;;;;;5.85;3.00;;;;;;;19.61;83.04;100881.91;3490499;82;98791;-86
2022/08/29 22:34:18;;;;;;;6.72;2.98;;;;;;;19.61;83.17;100883.30;3505780;83;25813;-87
2022/08/29 22:39:19;;;;;;;6.55;3.02;;;;;;;19.60;83.28;100880.33;3489629;82;98398;-87
2022/08/29 22:44:20;;;;;;;5.75;3.35;;;;;;;19.61;83.43;100876.32;3483676;82;34845;-87
2022/08/29 22:49:22;;;;;;;7.35;2.95;;;;;;;19.62;83.69;100885.50;3487914;82;98693;-88
2022/08/29 22:54:35;;;;;;;6.28;3.08;;;;;;;19.61;83.82;100882.53;3500273;83;34916;-87
2022/08/29 22:59:37;;;;;;;7.15;2.83;;;;;;;19.61;83.88;100896.49;3481365;82;98740;-88
2022/08/29 23:04:39;;;;;;;7.92;3.15;;;;;;;19.60;84.14;100897.68;3489313;82;34958;-80
2022/08/29 23:09:42;;;;;;;4.17;2.52;;;;;;;19.57;84.19;100895.13;3468610;82;99055;-79
2022/08/29 23:14:47;;;;;;;4.47;2.37;;;;;;;19.57;84.58;100892.97;3504793;83;35364;-80
2022/08/29 23:19:49;;;;;;;6.28;2.87;;;;;;;19.54;84.33;100897.40;3496935;82;98722;-80
2022/08/29 23:24:50;;;;;;;4.75;2.70;;;;;;;19.55;84.57;100904.55;3502401;83;34941;-80
2022/08/29 23:29:51;;;;;;;5.65;2.55;;;;;;;19.54;84.71;100894.61;3496237;82;98686;-80
2022/08/29 23:34:53;;;;;;;7.15;2.72;;;;;;;19.53;84.86;100899.22;3513228;82;34582;-80
2022/08/29 23:39:54;;;;;;;5.42;2.90;;;;;;;19.53;85.06;100895.83;3484198;83;98292;-80